^^
Datos históricos de la estación: Murcia-Puente Tocinos
Diario Informe para Diciembre 9, 2019 Unidades:  Ingés    Métrico   Ambas
Diario Semanal Mensual Anual
  Máxima: Mínima: Promedio:
Temperatura: 68.7 °F 58.8 °F 62.8 °F
Punto de rocio: 48.7 °F 35.2 °F 43.5 °F
Humedad: 67% 32% 51%
Velocidad viento: 17.5mph 1.4mph 7.4mph
Racha viento: 29mph - -
Viento- - OSO
Presión: 30.3 in 30.2 in -
Precipitación: 0 in    
 
 
Tabla de datos para Diciembre 9, 2019
Hora Temperatura Punto de rocio Presión Viento Velocidad viento Racha viento Humedad Intensidad lluvia(por hora) Nubes
00:04 60.3 °F 47.1 °F 30.2 in SO 7 mph 14 mph 62% 0 in
00:09 60.3 °F 47.1 °F 30.2 in SSO 7.6 mph 13.8 mph 62% 0 in
00:14 59.7 °F 46.8 °F 30.2 in SSO 6.9 mph 14 mph 62.2% 0 in
00:19 59.4 °F 47.1 °F 30.2 in SO 6.4 mph 10.4 mph 63.6% 0 in
00:24 59.5 °F 47.3 °F 30.2 in SO 5.4 mph 10.4 mph 64% 0 in
00:29 59.5 °F 47.3 °F 30.2 in OSO 4.7 mph 15 mph 64% 0 in
00:34 59.7 °F 47.5 °F 30.2 in OSO 6 mph 15 mph 64% 0 in
00:39 59.7 °F 47.5 °F 30.2 in OSO 6.9 mph 17.5 mph 64% 0 in
00:44 59.9 °F 47.5 °F 30.2 in OSO 7.3 mph 17 mph 63.8% 0 in
00:49 60.1 °F 47.5 °F 30.2 in OSO 7.6 mph 16 mph 63% 0 in
00:54 60.1 °F 47.5 °F 30.2 in OSO 7.6 mph 15.2 mph 63% 0 in
00:59 60.1 °F 47.5 °F 30.2 in OSO 7.6 mph 15 mph 63% 0 in
01:04 60.3 °F 47.7 °F 30.2 in SO 6.9 mph 14 mph 63% 0 in
01:09 60.3 °F 47.7 °F 30.2 in Sur 6.4 mph 10 mph 63% 0 in
01:14 59.9 °F 47.7 °F 30.2 in Sur 5.8 mph 8 mph 63.9% 0 in
01:19 59.7 °F 47.5 °F 30.2 in SSO 5.4 mph 7.4 mph 64% 0 in
01:24 59.7 °F 47.5 °F 30.2 in Sur 4.8 mph 11.5 mph 64% 0 in
01:29 59.5 °F 47.8 °F 30.2 in Sur 4.3 mph 12 mph 65% 0 in
01:34 59.5 °F 47.7 °F 30.2 in Sur 5.4 mph 12.7 mph 64.9% 0 in
01:39 59.9 °F 47.5 °F 30.2 in SSE 6.2 mph 13 mph 63.8% 0 in
01:44 60.1 °F 47.5 °F 30.2 in SSO 6.9 mph 12 mph 63% 0 in
01:49 60.3 °F 47.5 °F 30.2 in OSO 7.4 mph 10.7 mph 62.6% 0 in
01:54 60.3 °F 47.5 °F 30.2 in Oeste 6.3 mph 11 mph 62.8% 0 in
01:59 60.3 °F 47.7 °F 30.2 in ONO 5.4 mph 12.3 mph 63% 0 in
02:04 60.3 °F 47.5 °F 30.2 in OSO 5.3 mph 14 mph 62.7% 0 in
02:09 60.4 °F 47.3 °F 30.2 in OSO 5.2 mph 21.9 mph 62% 0 in
02:14 60.8 °F 47.3 °F 30.2 in OSO 6.8 mph 22 mph 61% 0 in
02:19 60.6 °F 47.3 °F 30.2 in OSO 8.1 mph 14 mph 61.1% 0 in
02:24 60.6 °F 47.5 °F 30.2 in OSO 7.1 mph 12.7 mph 62% 0 in
02:29 60.6 °F 47.5 °F 30.2 in OSO 6.4 mph 13 mph 62% 0 in
02:34 60.6 °F 47.5 °F 30.2 in OSO 5.8 mph 12.7 mph 62% 0 in
02:39 60.6 °F 47.5 °F 30.2 in OSO 5.4 mph 16.3 mph 62% 0 in
02:44 60.6 °F 47.5 °F 30.2 in OSO 6.6 mph 16 mph 62% 0 in
02:49 60.6 °F 47.5 °F 30.2 in SO 7.6 mph 12 mph 62% 0 in
02:54 60.4 °F 47.5 °F 30.2 in SSO 6 mph 12 mph 62% 0 in
02:59 60.4 °F 47.5 °F 30.2 in Sur 4.7 mph 8.1 mph 62% 0 in
03:04 60.3 °F 47.3 °F 30.2 in Sur 4 mph 8 mph 62.2% 0 in
03:09 60.3 °F 47.7 °F 30.2 in SSO 3.6 mph 6.2 mph 63% 0 in
03:14 60.3 °F 47.7 °F 30.2 in SSO 3.6 mph 9.2 mph 63% 0 in
03:19 60.4 °F 47.8 °F 30.2 in OSO 3.6 mph 18.4 mph 63% 0 in
03:24 61 °F 48 °F 30.2 in OSO 6.3 mph 18.4 mph 62.3% 0 in
03:29 61.3 °F 48 °F 30.2 in OSO 8.5 mph 21.9 mph 61.4% 0 in
03:34 61.7 °F 48.2 °F 30.2 in OSO 9.2 mph 22 mph 61% 0 in
03:39 62.1 °F 48 °F 30.2 in SO 9.7 mph 17 mph 60.2% 0 in
03:44 61.9 °F 47.8 °F 30.2 in SO 8.4 mph 15.2 mph 60% 0 in
03:49 61.9 °F 47.8 °F 30.2 in OSO 7.4 mph 15 mph 60% 0 in
03:54 61.9 °F 47.8 °F 30.2 in OSO 7.4 mph 12.7 mph 60% 0 in
03:59 61.7 °F 47.7 °F 30.2 in OSO 7.4 mph 14 mph 60% 0 in
04:04 61.5 °F 47.7 °F 30.2 in Oeste 7.1 mph 14 mph 60% 0 in
04:09 61.3 °F 47.7 °F 30.2 in Oeste 6.9 mph 16.8 mph 60.4% 0 in
04:14 61.3 °F 47.8 °F 30.2 in Oeste 6.6 mph 17.3 mph 61% 0 in
04:19 61.5 °F 47.8 °F 30.2 in Oeste 6.4 mph 15 mph 61% 0 in
04:24 61.3 °F 47.8 °F 30.2 in OSO 6.7 mph 12 mph 61% 0 in
04:29 61.2 °F 48 °F 30.2 in SSO 6.9 mph 9 mph 61.9% 0 in
04:34 60.6 °F 47.7 °F 30.2 in Sur 4.8 mph 5.9 mph 62% 0 in
04:39 60.4 °F 47.3 °F 30.2 in Sur 3.1 mph 6 mph 62% 0 in
04:44 60.3 °F 47.1 °F 30.2 in SSE 3.1 mph 5 mph 62% 0 in
04:49 60.1 °F 46.9 °F 30.2 in SSE 3.1 mph 4.6 mph 62% 0 in
04:54 59.9 °F 46.8 °F 30.2 in Sur 2.7 mph 5 mph 62% 0 in
04:59 59.9 °F 46.8 °F 30.2 in ONO 2.4 mph 5 mph 62% 0 in
05:04 59.7 °F 47.1 °F 30.2 in NO 2.4 mph 6.9 mph 62.9% 0 in
05:09 59.4 °F 47.3 °F 30.2 in Este 2.4 mph 7 mph 64.3% 0 in
05:14 59 °F 47.3 °F 30.2 in SSO 2.8 mph 9.2 mph 65% 0 in
05:19 59.2 °F 47.5 °F 30.2 in NE 3.1 mph 9 mph 65% 0 in
05:24 59.4 °F 47.3 °F 30.2 in ESE 3.4 mph 6 mph 64.3% 0 in
05:29 59.4 °F 47.5 °F 30.2 in Este 3.6 mph 7.6 mph 65% 0 in
05:34 59.4 °F 47.5 °F 30.2 in Este 3.2 mph 8 mph 64.4% 0 in
05:39 59.5 °F 47.5 °F 30.2 in ESE 2.9 mph 5.9 mph 64% 0 in
05:44 59.9 °F 47.7 °F 30.2 in Oeste 2.9 mph 8.7 mph 64% 0 in
05:49 60.1 °F 48 °F 30.2 in Oeste 2.9 mph 14 mph 64% 0 in
05:54 60.4 °F 48.2 °F 30.2 in Oeste 5.3 mph 21.3 mph 64.1% 0 in
05:59 60.8 °F 48.6 °F 30.2 in Oeste 7.4 mph 22.5 mph 64% 0 in
06:04 60.6 °F 48.4 °F 30.2 in Oeste 9.3 mph 23 mph 64% 0 in
06:09 60.4 °F 48.4 °F 30.2 in Oeste 10.7 mph 28.4 mph 64.2% 0 in
06:14 60.4 °F 48.6 °F 30.2 in Oeste 11.9 mph 29 mph 65% 0 in
06:19 60.1 °F 48.6 °F 30.2 in Oeste 13 mph 29 mph 65.4% 0 in
06:24 60.1 °F 48.7 °F 30.2 in Oeste 13.4 mph 25.3 mph 66% 0 in
06:29 60.1 °F 48.7 °F 30.2 in Oeste 13.7 mph 25 mph 66% 0 in
06:34 59.9 °F 48.4 °F 30.2 in Oeste 13.9 mph 25.3 mph 65.7% 0 in
06:39 59.9 °F 48.4 °F 30.2 in Oeste 14 mph 25 mph 65.6% 0 in
06:44 59.7 °F 48.4 °F 30.2 in Oeste 13.9 mph 23 mph 66% 0 in
06:49 59.7 °F 48.4 °F 30.2 in Oeste 13.7 mph 23 mph 66% 0 in
06:54 59.7 °F 48.4 °F 30.2 in Oeste 13 mph 20 mph 66% 0 in
06:59 59.7 °F 48.2 °F 30.2 in Oeste 12.5 mph 18.4 mph 65.8% 0 in
07:04 59.7 °F 47.8 °F 30.2 in SO 10.3 mph 18 mph 65% 0 in
07:09 59.7 °F 47.8 °F 30.2 in Sur 8.7 mph 16 mph 65% 0 in
07:14 59.7 °F 47.8 °F 30.2 in SSO 6.7 mph 10.7 mph 65% 0 in
07:19 59.5 °F 48 °F 30.2 in SSE 5.2 mph 11 mph 65.4% 0 in
07:24 59.2 °F 47.8 °F 30.2 in Sur 5.6 mph 12.7 mph 66% 0 in
07:29 59 °F 48 °F 30.2 in SSE 5.9 mph 13 mph 66.8% 0 in
07:34 58.8 °F 48 °F 30.2 in Sur 6.2 mph 16.8 mph 67% 0 in
07:39 58.8 °F 47.8 °F 30.2 in OSO 6.4 mph 17.5 mph 66.6% 0 in
07:44 59.2 °F 47.8 °F 30.2 in OSO 6.4 mph 17 mph 66% 0 in
07:49 59.2 °F 47.8 °F 30.2 in OSO 6.4 mph 15.2 mph 66% 0 in
07:54 59.2 °F 47.8 °F 30.2 in OSO 7 mph 15 mph 66% 0 in
07:59 59.2 °F 47.7 °F 30.2 in OSO 7.4 mph 20.7 mph 65.8% 0 in
08:04 59.4 °F 47.7 °F 30.2 in SO 8 mph 21 mph 65% 0 in
08:09 59.4 °F 47.7 °F 30.2 in SO 8.5 mph 20.7 mph 65% 0 in
08:14 59.4 °F 47.7 °F 30.2 in SO 8.6 mph 21 mph 65% 0 in
08:19 59.4 °F 47.5 °F 30.2 in OSO 8.7 mph 16.1 mph 65% 0 in
08:24 59.2 °F 47.5 °F 30.2 in OSO 8.4 mph 16.1 mph 65% 0 in
08:29 59 °F 47.7 °F 30.2 in OSO 8.1 mph 16 mph 65.8% 0 in
08:34 58.8 °F 47.5 °F 30.2 in OSO 7.4 mph 15 mph 66% 0 in
08:39 59 °F 47.3 °F 30.3 in OSO 6.9 mph 17.5 mph 65.3% 0 in
08:44 59 °F 47.3 °F 30.3 in OSO 8.1 mph 17.3 mph 65% 0 in
08:49 59.2 °F 47.5 °F 30.3 in Oeste 9.2 mph 19.6 mph 65% 0 in
08:54 59.4 °F 47.3 °F 30.3 in Oeste 10.1 mph 20 mph 64.3% 0 in
08:59 59.4 °F 47.1 °F 30.3 in Oeste 10.7 mph 20.8 mph 64% 0 in
09:04 59.4 °F 47.1 °F 30.3 in Oeste 11.7 mph 23 mph 64% 0 in
09:09 59.2 °F 46.9 °F 30.3 in Oeste 12.5 mph 23 mph 64% 0 in
09:14 59 °F 46.8 °F 30.3 in Oeste 12.1 mph 22.5 mph 64% 0 in
09:19 58.8 °F 46.8 °F 30.3 in Oeste 11.8 mph 23 mph 64% 0 in
09:24 58.8 °F 46.8 °F 30.3 in Oeste 12.2 mph 23 mph 64% 0 in
09:29 59.2 °F 46.6 °F 30.3 in Oeste 12.5 mph 24.2 mph 63% 0 in
09:34 59.2 °F 46.6 °F 30.3 in Oeste 13.7 mph 27.3 mph 62.9% 0 in
09:39 59.4 °F 46.4 °F 30.3 in Oeste 14.7 mph 28 mph 62% 0 in
09:44 59.4 °F 46.8 °F 30.3 in Oeste 14 mph 28 mph 63% 0 in
09:49 59.4 °F 46.8 °F 30.3 in Oeste 13.5 mph 18 mph 63% 0 in
09:54 59.4 °F 46.8 °F 30.3 in Oeste 10.8 mph 18.5 mph 63% 0 in
09:59 59.4 °F 46.8 °F 30.3 in Oeste 8.7 mph 19 mph 63% 0 in
10:04 59.4 °F 46.6 °F 30.3 in Oeste 8.7 mph 20.7 mph 62.4% 0 in
10:09 59.5 °F 46.6 °F 30.3 in Oeste 8.7 mph 21 mph 62% 0 in
10:14 59.7 °F 46.6 °F 30.3 in Oeste 9.9 mph 20.7 mph 61.6% 0 in
10:19 60.1 °F 46.6 °F 30.3 in Oeste 10.7 mph 21 mph 61% 0 in
10:24 60.3 °F 46.8 °F 30.3 in OSO 10.1 mph 20 mph 61% 0 in
10:29 60.4 °F 46.6 °F 30.3 in Oeste 9.7 mph 16.1 mph 60.1% 0 in
10:34 60.8 °F 46.2 °F 30.3 in Oeste 9.7 mph 20.8 mph 59% 0 in
10:39 61 °F 46.2 °F 30.3 in OSO 9.7 mph 21 mph 58.3% 0 in
10:44 61.3 °F 46.4 °F 30.3 in OSO 9.1 mph 18 mph 58% 0 in
10:49 61.3 °F 46.4 °F 30.3 in OSO 8.7 mph 15.2 mph 58% 0 in
10:54 61.5 °F 46.4 °F 30.3 in Oeste 7.7 mph 15.2 mph 57.8% 0 in
10:59 61.5 °F 46 °F 30.3 in OSO 6.9 mph 17.3 mph 56.6% 0 in
11:04 61.7 °F 45.7 °F 30.3 in OSO 8 mph 17 mph 55.8% 0 in
11:09 62.1 °F 45.7 °F 30.3 in SO 8.7 mph 14 mph 55% 0 in
11:14 62.1 °F 45.7 °F 30.3 in OSO 8.3 mph 14.5 mph 55% 0 in
11:19 62.1 °F 45.7 °F 30.3 in OSO 8.1 mph 16.1 mph 55% 0 in
11:24 62.1 °F 46 °F 30.3 in Oeste 8.1 mph 16 mph 55.8% 0 in
11:29 62.1 °F 45.9 °F 30.3 in OSO 8.1 mph 14 mph 55.4% 0 in
11:34 62.2 °F 45.7 °F 30.3 in Oeste 7.8 mph 14 mph 54.8% 0 in
11:39 62.2 °F 45.9 °F 30.3 in Oeste 7.6 mph 14 mph 54.8% 0 in
11:44 62.4 °F 45.3 °F 30.3 in SO 6.6 mph 17.3 mph 53.5% 0 in
11:49 62.8 °F 45.3 °F 30.3 in OSO 5.9 mph 17 mph 53% 0 in
11:54 63 °F 45.7 °F 30.3 in OSO 6.2 mph 12 mph 53% 0 in
11:59 63.3 °F 45.1 °F 30.3 in OSO 6.4 mph 13 mph 51.6% 0 in
12:04 63.5 °F 44.6 °F 30.3 in ONO 6.3 mph 13.8 mph 50.1% 0 in
12:09 63.7 °F 44.2 °F 30.3 in Oeste 6.2 mph 15.2 mph 49.1% 0 in
12:14 63.9 °F 44.1 °F 30.3 in Oeste 7 mph 15 mph 48.5% 0 in
12:19 64.2 °F 43 °F 30.3 in Oeste 7.6 mph 20.7 mph 46.1% 0 in
12:24 64.4 °F 42.4 °F 30.3 in Oeste 8.9 mph 21 mph 44.6% 0 in
12:29 64.6 °F 42.1 °F 30.3 in Oeste 10 mph 22.3 mph 43.8% 0 in
12:34 64.6 °F 41.7 °F 30.3 in Oeste 10.1 mph 22 mph 43% 0 in
12:39 64.8 °F 41.7 °F 30.3 in Oeste 10.2 mph 21.9 mph 43% 0 in
12:44 64.9 °F 42.1 °F 30.3 in Oeste 11.4 mph 22 mph 43.4% 0 in
12:49 65.1 °F 41.4 °F 30.3 in OSO 12.3 mph 24.6 mph 41.8% 0 in
12:54 65.1 °F 41.2 °F 30.3 in OSO 12.3 mph 25 mph 41.7% 0 in
12:59 65.3 °F 41.7 °F 30.3 in OSO 12.3 mph 19 mph 42.1% 0 in
13:04 65.5 °F 41.9 °F 30.3 in OSO 11.4 mph 22.3 mph 42% 0 in
13:09 65.7 °F 41.4 °F 30.3 in OSO 10.7 mph 22 mph 41% 0 in
13:14 65.8 °F 41.5 °F 30.3 in Oeste 11.6 mph 24.2 mph 40.9% 0 in
13:19 65.8 °F 41.2 °F 30.3 in Oeste 12.3 mph 25.3 mph 40.4% 0 in
13:24 66 °F 40.5 °F 30.3 in ONO 13.9 mph 25 mph 39.4% 0 in
13:29 66 °F 39.9 °F 30.2 in ONO 15.2 mph 28.8 mph 38.5% 0 in
13:34 66 °F 40.8 °F 30.2 in ONO 15.6 mph 29 mph 39.9% 0 in
13:39 66 °F 41 °F 30.2 in ONO 15.9 mph 20 mph 39.9% 0 in
13:44 66 °F 41 °F 30.2 in ONO 12.6 mph 17 mph 40% 0 in
13:49 66.4 °F 40.8 °F 30.2 in Oeste 10 mph 16.1 mph 39.1% 0 in
13:54 66.6 °F 41.2 °F 30.2 in ONO 8.7 mph 16 mph 39.6% 0 in
13:59 66.7 °F 41.2 °F 30.2 in Oeste 7.6 mph 17.3 mph 39.1% 0 in
14:04 66.9 °F 41.2 °F 30.2 in Oeste 8.3 mph 17 mph 39.1% 0 in
14:09 66.9 °F 41.2 °F 30.2 in OSO 8.7 mph 14 mph 39.2% 0 in
14:14 66.9 °F 41.5 °F 30.2 in OSO 8.4 mph 13.8 mph 39.5% 0 in
14:19 66.9 °F 41.7 °F 30.2 in OSO 8.1 mph 14 mph 39.9% 0 in
14:24 66.9 °F 42.1 °F 30.2 in OSO 7.1 mph 12 mph 40.2% 0 in
14:29 67.1 °F 42.1 °F 30.2 in OSO 6.4 mph 11 mph 40% 0 in
14:34 67.3 °F 41.9 °F 30.2 in OSO 5.8 mph 11.8 mph 39.6% 0 in
14:39 67.3 °F 41.7 °F 30.2 in Oeste 5.4 mph 12 mph 39.5% 0 in
14:44 67.3 °F 41.5 °F 30.2 in Oeste 5.8 mph 11 mph 39% 0 in
14:49 67.3 °F 41.7 °F 30.2 in Oeste 6.2 mph 10.4 mph 39.4% 0 in
14:54 67.3 °F 41.9 °F 30.2 in OSO 5.8 mph 8.1 mph 39.7% 0 in
14:59 67.3 °F 41.5 °F 30.2 in SO 5.4 mph 8.1 mph 39% 0 in
15:04 67.5 °F 41.4 °F 30.2 in SO 4.7 mph 11.5 mph 38.4% 0 in
15:09 67.6 °F 41.4 °F 30.2 in OSO 4.3 mph 12 mph 38.1% 0 in
15:14 67.8 °F 41.4 °F 30.2 in OSO 4.8 mph 9.2 mph 38.1% 0 in
15:19 67.8 °F 41.5 °F 30.2 in SO 5.2 mph 9.2 mph 38.4% 0 in
15:24 68.2 °F 42.3 °F 30.2 in OSO 5.3 mph 9.2 mph 39% 0 in
15:29 68 °F 42.1 °F 30.2 in OSO 5.4 mph 9.2 mph 39.1% 0 in
15:34 67.8 °F 42.3 °F 30.2 in Oeste 4.8 mph 9 mph 39.4% 0 in
15:39 68 °F 42.8 °F 30.2 in SO 4.3 mph 7.4 mph 40.2% 0 in
15:44 68 °F 42.8 °F 30.2 in Oeste 3.9 mph 7 mph 40% 0 in
15:49 68.2 °F 42.8 °F 30.2 in Oeste 3.6 mph 6 mph 40% 0 in
15:54 68.4 °F 43 °F 30.2 in Oeste 2.9 mph 5 mph 40% 0 in
15:59 68.5 °F 43.3 °F 30.2 in Oeste 2.4 mph 3.6 mph 40.2% 0 in
16:04 68.7 °F 43.2 °F 30.2 in Oeste 1.8 mph 4 mph 39.7% 0 in
16:09 68.7 °F 43.3 °F 30.2 in Oeste 1.4 mph 5.8 mph 40% 0 in
16:14 68.5 °F 43.5 °F 30.2 in OSO 2 mph 6 mph 40.4% 0 in
16:19 68.5 °F 43.9 °F 30.2 in OSO 2.4 mph 5 mph 41% 0 in
16:24 68.5 °F 43.7 °F 30.2 in OSO 1.8 mph 5 mph 40.7% 0 in
16:29 68.5 °F 43.7 °F 30.2 in Oeste 1.4 mph 5.4 mph 40.6% 0 in
16:34 68.5 °F 43.7 °F 30.2 in ONO 2.2 mph 6 mph 40.7% 0 in
16:39 68.5 °F 43.3 °F 30.2 in Oeste 2.9 mph 8.5 mph 40.3% 0 in
16:44 68.4 °F 43 °F 30.2 in Oeste 3.3 mph 9 mph 39.9% 0 in
16:49 68.2 °F 42.4 °F 30.2 in Oeste 3.6 mph 9.2 mph 39.4% 0 in
16:54 68 °F 42.8 °F 30.2 in Oeste 4.2 mph 9 mph 40% 0 in
16:59 68 °F 42.8 °F 30.2 in Oeste 4.7 mph 7.4 mph 40% 0 in
17:04 67.8 °F 42.6 °F 30.2 in Oeste 4.5 mph 8.1 mph 40% 0 in
17:09 67.8 °F 42.4 °F 30.2 in Oeste 4.3 mph 8.1 mph 39.7% 0 in
17:14 67.8 °F 41.9 °F 30.2 in OSO 4.3 mph 8.1 mph 39.1% 0 in
17:19 67.8 °F 41.9 °F 30.2 in OSO 4.3 mph 7 mph 39% 0 in
17:24 67.6 °F 41.7 °F 30.2 in SO 4.3 mph 8.1 mph 39% 0 in
17:29 67.5 °F 41.4 °F 30.2 in SO 4.3 mph 8.1 mph 38.7% 0 in
17:34 67.5 °F 41 °F 30.2 in SO 4.5 mph 8.1 mph 38% 0 in
17:39 67.5 °F 40.8 °F 30.2 in OSO 4.7 mph 7 mph 38% 0 in
17:44 67.3 °F 40.8 °F 30.2 in OSO 4.1 mph 6 mph 38% 0 in
17:49 67.1 °F 40.6 °F 30.2 in Oeste 3.6 mph 6 mph 38% 0 in
17:54 66.9 °F 40.1 °F 30.2 in ONO 3.3 mph 10.4 mph 37.3% 0 in
17:59 66.9 °F 39.4 °F 30.2 in ONO 3.1 mph 10 mph 36.4% 0 in
18:04 66.9 °F 38.7 °F 30.2 in Oeste 4.5 mph 9.7 mph 35.3% 0 in
18:09 66.9 °F 37.6 °F 30.2 in Oeste 5.4 mph 10.4 mph 34.1% 0 in
18:14 66.9 °F 37.6 °F 30.2 in Oeste 6 mph 10.4 mph 33.9% 0 in
18:19 66.9 °F 36.9 °F 30.2 in Oeste 6.4 mph 10 mph 33.1% 0 in
18:24 66.9 °F 36.9 °F 30.2 in Oeste 5.7 mph 10 mph 33% 0 in
18:29 66.9 °F 36.5 °F 30.2 in ONO 5.2 mph 10.4 mph 32.4% 0 in
18:34 66.9 °F 36.1 °F 30.2 in ONO 5.2 mph 9 mph 32% 0 in
18:39 66.7 °F 36.5 °F 30.2 in NO 5.2 mph 6 mph 32.6% 0 in
18:44 66.4 °F 36.9 °F 30.2 in North 3.9 mph 6.2 mph 33.7% 0 in
18:49 65.7 °F 38.1 °F 30.2 in ENE 2.9 mph 6.2 mph 36.2% 0 in
18:54 64.8 °F 39 °F 30.2 in Este 3.7 mph 6 mph 38.5% 0 in
18:59 64.4 °F 37.9 °F 30.2 in Este 4.3 mph 6 mph 37.5% 0 in
19:04 64.6 °F 37.6 °F 30.2 in Este 3.6 mph 5 mph 36.7% 0 in
19:09 64.8 °F 36.3 °F 30.2 in NE 3.1 mph 5 mph 34.9% 0 in
19:14 64.9 °F 35.8 °F 30.2 in NO 3 mph 5.2 mph 34% 0 in
19:19 65.1 °F 35.2 °F 30.2 in ONO 2.9 mph 7.4 mph 33.1% 0 in
19:24 65.1 °F 35.2 °F 30.2 in ONO 3.7 mph 8.5 mph 33% 0 in
19:29 64.9 °F 35.8 °F 30.2 in Oeste 4.3 mph 9 mph 33.8% 0 in
19:34 64.8 °F 35.6 °F 30.2 in OSO 3.5 mph 5 mph 34% 0 in
19:39 64.6 °F 35.8 °F 30.3 in SSO 2.9 mph 4.6 mph 34.5% 0 in
19:44 64 °F 36.9 °F 30.3 in Este 2.4 mph 6.4 mph 36.5% 0 in
19:49 63.5 °F 36.5 °F 30.3 in ESE 2 mph 7 mph 36.7% 0 in
19:54 63.3 °F 36.3 °F 30.3 in SE 2.9 mph 6 mph 36.6% 0 in
19:59 63.7 °F 35.8 °F 30.3 in SO 3.6 mph 10.2 mph 35.2% 0 in
20:04 64.6 °F 36.3 °F 30.3 in SO 4.5 mph 11.2 mph 35.1% 0 in
20:09 64.6 °F 37 °F 30.3 in OSO 5.2 mph 11.5 mph 36% 0 in
20:14 64.6 °F 36.9 °F 30.3 in OSO 6.5 mph 15 mph 36% 0 in
20:19 64.6 °F 36.7 °F 30.3 in OSO 7.4 mph 16.3 mph 35.6% 0 in
20:24 64.8 °F 36.5 °F 30.3 in OSO 8.4 mph 16 mph 35% 0 in
20:29 64.8 °F 36.5 °F 30.3 in OSO 9.2 mph 15 mph 35% 0 in
20:34 64.8 °F 36 °F 30.3 in Oeste 8.2 mph 14 mph 34.3% 0 in
20:39 64.8 °F 35.8 °F 30.3 in Oeste 7.4 mph 20.8 mph 34% 0 in
20:44 64.9 °F 36 °F 30.3 in Oeste 8 mph 21 mph 34% 0 in
20:49 64.8 °F 35.8 °F 30.3 in Oeste 8.5 mph 16 mph 34.2% 0 in
20:54 64.4 °F 36.1 °F 30.3 in Oeste 8.9 mph 17.3 mph 35% 0 in
20:59 64.4 °F 36.1 °F 30.3 in Oeste 9.2 mph 18.4 mph 35% 0 in
21:04 64.2 °F 35.8 °F 30.3 in ONO 10.5 mph 24.6 mph 34.8% 0 in
21:09 64.2 °F 35.2 °F 30.3 in Oeste 11.4 mph 25 mph 34% 0 in
21:14 64.4 °F 35.2 °F 30.3 in Oeste 14.9 mph 26.5 mph 33.8% 0 in
21:19 64.2 °F 35.2 °F 30.3 in ONO 17.5 mph 27.6 mph 34% 0 in
21:24 64.2 °F 35.2 °F 30.3 in ONO 16.5 mph 28 mph 34.1% 0 in
21:29 64 °F 35.8 °F 30.3 in Oeste 15.6 mph 23 mph 35% 0 in
21:34 63.9 °F 36 °F 30.3 in ONO 13.2 mph 23 mph 35.5% 0 in
21:39 63.5 °F 36 °F 30.3 in Oeste 11.4 mph 21 mph 36% 0 in
21:44 63.1 °F 36.1 °F 30.3 in Oeste 10.5 mph 17 mph 36.7% 0 in
21:49 63 °F 36.5 °F 30.3 in Oeste 9.7 mph 16.3 mph 37.4% 0 in
21:54 62.6 °F 36.5 °F 30.3 in Oeste 9.1 mph 21.3 mph 38% 0 in
21:59 62.2 °F 36.9 °F 30.3 in OSO 8.7 mph 21 mph 38.6% 0 in
22:04 62.1 °F 37 °F 30.3 in OSO 8 mph 14 mph 39.4% 0 in
22:09 61.5 °F 37 °F 30.3 in OSO 7.6 mph 13 mph 40.1% 0 in
22:14 61.3 °F 37.6 °F 30.3 in OSO 7.6 mph 13 mph 41% 0 in
22:19 61.3 °F 37.8 °F 30.3 in OSO 7.6 mph 12.5 mph 41.5% 0 in
22:24 61.2 °F 38.3 °F 30.3 in OSO 6.8 mph 13 mph 42.6% 0 in
22:29 61.2 °F 38.5 °F 30.3 in Oeste 6.2 mph 13.8 mph 43.2% 0 in
22:34 61 °F 38.8 °F 30.3 in Oeste 6 mph 14 mph 44% 0 in
22:39 61 °F 39.2 °F 30.3 in Oeste 5.9 mph 17.8 mph 44.4% 0 in
22:44 61.2 °F 39.6 °F 30.3 in Oeste 7.4 mph 18.4 mph 45% 0 in
22:49 61 °F 39.6 °F 30.3 in Oeste 8.5 mph 18.5 mph 45% 0 in
22:54 61 °F 39.7 °F 30.3 in Oeste 9.4 mph 19 mph 45.5% 0 in
22:59 60.8 °F 39.9 °F 30.3 in Oeste 10.2 mph 20.7 mph 46% 0 in
23:04 60.8 °F 39.9 °F 30.3 in Oeste 10.8 mph 21 mph 46% 0 in
23:09 60.6 °F 39.7 °F 30.3 in Oeste 11.2 mph 18 mph 46% 0 in
23:14 60.4 °F 40.1 °F 30.3 in Oeste 10 mph 20.7 mph 47% 0 in
23:19 60.4 °F 40.1 °F 30.3 in Oeste 9.2 mph 21 mph 47% 0 in
23:24 60.3 °F 39.9 °F 30.3 in Oeste 10.4 mph 21 mph 47% 0 in
23:29 60.3 °F 40.5 °F 30.3 in Oeste 11.4 mph 21.9 mph 47.8% 0 in
23:34 60.1 °F 40.3 °F 30.3 in Oeste 11 mph 22 mph 48% 0 in
23:39 60.1 °F 40.3 °F 30.3 in Oeste 10.7 mph 21 mph 48% 0 in
23:44 60.1 °F 40.3 °F 30.3 in OSO 11 mph 21.9 mph 48% 0 in
23:49 60.1 °F 40.3 °F 30.3 in Oeste 11.2 mph 22 mph 48% 0 in
23:54 60.3 °F 40.5 °F 30.3 in Oeste 10.9 mph 20 mph 48% 0 in
23:59 60.3 °F 40.1 °F 30.3 in OSO 10.7 mph 20 mph 47.3% 0 in
Murcia-Puente Tocinos, España
Compliments of Weather Underground - 3 mb

La estación de MeteoMurcia.com, publica sus datos en los siguientes proyectos:

Weather Underground PWS IMURCIAP2 Meteoclimatic www.awekas.at

W3Counter
Web Analytics